• Join FlightAware (Why Join?)
  • Login
  • US Flag 
07:01PM EST


 

Airport Tracker/Info


-or-


 

Live Flight TrackerFlight Track Log ✈ AAY825 ✈ 11-Aug-2014 ✈ KDSM - KPIE

Flight Track Log - Related Links

Times and Time Zones

All times are in EDT time to prevent confusion due to time zone crossing. See the AAY825 flight status page for this flight to view local times or setup timezone preferences in your user account.

Time Position Orientation Groundspeed Altitude Reporting Facility
EDT Latitude Longitude Course Direction KTS MPH feet Rate Location/Type
11:37AM 41.5528 -93.6275 103° East 159 183 2,200  Level Minneapolis Center
11:38AM 41.5414 -93.5639 103° East 228 262 3,500 1,560 Climbing Minneapolis Center
11:39AM 41.4531 -93.5339 166° South 276 318 5,700 2,280 Climbing Minneapolis Center
11:40AM 41.3700 -93.4953 161° South 291 335 8,600 2,400 Climbing Minneapolis Center
11:41AM 41.2911 -93.4556 159° South 304 350 10,700 1,500 Climbing Minneapolis Center
11:42AM 41.2025 -93.4119 160° South 329 379 11,800 1,380 Climbing Minneapolis Center
11:43AM 41.1189 -93.3742 161° South 357 411 13,100 1,920 Climbing Chicago Center
11:44AM 41.0153 -93.3081 154° Southeast 393 452 15,200 1,980 Climbing Chicago Center
11:45AM 40.9158 -93.2203 146° Southeast 423 487 17,200 1,740 Climbing Chicago Center
11:46AM 40.8144 -93.1353 148° Southeast 430 495 18,800 1,500 Climbing Chicago Center
11:47AM 40.7075 -93.0489 149° Southeast 445 512 20,400 1,500 Climbing Chicago Center
11:48AM 40.5758 -92.9425 148° Southeast 458 527 22,000 1,320 Climbing Chicago Center
11:48AM 40.5322 -92.9089 150° Southeast 461 531 22,600 1,200 Climbing Kansas City Center
11:49AM 40.4167 -92.7631 136° Southeast 484 557 24,000 1,380 Climbing Kansas City Center
11:50AM 40.3283 -92.6242 130° Southeast 485 558 25,500 1,500 Climbing Kansas City Center
11:51AM 40.2331 -92.4736 130° Southeast 489 563 27,100 1,380 Climbing Kansas City Center
11:52AM 40.1464 -92.3400 130° Southeast 490 564 28,400 1,260 Climbing Kansas City Center
11:53AM 40.0594 -92.2083 131° Southeast 486 559 29,700 1,080 Climbing Kansas City Center
11:55AM 39.9739 -92.0781 131° Southeast 482 555 30,700 600 Climbing Kansas City Center
11:56AM 39.8878 -91.9475 131° Southeast 481 554 31,000 120 Climbing Kansas City Center
11:57AM 39.7850 -91.7944 131° Southeast 475 547 31,000  Level Kansas City Center
11:58AM 39.7000 -91.6658 131° Southeast 475 547 31,000  Level Kansas City Center
11:59AM 39.6164 -91.5356 130° Southeast 475 547 31,000  Level Kansas City Center
12:00PM 39.5300 -91.4072 131° Southeast 475 547 31,000  Level Kansas City Center
12:01PM 39.4269 -91.2575 132° Southeast 478 550 31,000  Level Kansas City Center
12:02PM 39.3361 -91.1253 132° Southeast 487 560 31,000  Level Kansas City Center
12:03PM 39.2475 -90.9914 130° Southeast 488 562 31,000  Level Kansas City Center
12:04PM 39.1581 -90.8592 131° Southeast 488 562 31,000  Level Kansas City Center
12:05PM 39.0686 -90.7275 131° Southeast 488 562 31,000  Level Kansas City Center
12:06PM 38.9789 -90.5981 132° Southeast 488 562 31,000  Level Kansas City Center
12:07PM 38.8850 -90.4550 130° Southeast 488 562 31,000  Level Kansas City Center
12:08PM 38.7792 -90.3128 134° Southeast 490 564 31,000  Level Kansas City Center
12:09PM 38.6881 -90.1819 132° Southeast 490 564 31,000  Level Kansas City Center
12:10PM 38.5822 -90.0342 132° Southeast 495 570 31,000  Level Kansas City Center
12:11PM 38.5000 -89.9097 130° Southeast 491 565 31,000  Level Kansas City Center
12:12PM 38.4069 -89.7825 133° Southeast 491 565 31,000  Level Kansas City Center
12:13PM 38.3142 -89.6492 132° Southeast 496 571 31,000  Level Kansas City Center
12:14PM 38.2225 -89.5206 132° Southeast 494 568 31,000  Level Kansas City Center
12:15PM 38.1117 -89.3664 132° Southeast 493 567 31,000  Level Kansas City Center
12:16PM 38.0203 -89.2375 132° Southeast 491 565 31,000  Level Kansas City Center
12:17PM 37.9272 -89.1075 132° Southeast 497 572 31,000  Level Kansas City Center
12:18PM 37.8317 -88.9789 133° Southeast 499 574 31,000  Level Kansas City Center
12:19PM 37.7367 -88.8439 132° Southeast 500 575 31,000  Level Kansas City Center
12:20PM 37.6294 -88.6978 133° Southeast 502 578 31,000  Level Kansas City Center
12:21PM 37.5481 -88.5858 133° Southeast 501 577 31,000  Level Memphis Center
12:22PM 37.4533 -88.4581 133° Southeast 499 574 31,000  Level Memphis Center
12:23PM 37.3606 -88.3317 133° Southeast 495 570 31,000  Level Memphis Center
12:24PM 37.2683 -88.2069 133° Southeast 490 564 31,000  Level Memphis Center
12:25PM 37.1708 -88.0711 132° Southeast 486 559 31,000  Level Memphis Center
12:26PM 37.0789 -87.9461 133° Southeast 485 558 31,000  Level Memphis Center
12:27PM 36.9886 -87.8219 132° Southeast 483 556 31,000  Level Memphis Center
12:28PM 36.8983 -87.6986 132° Southeast 480 552 31,000  Level Memphis Center
12:29PM 36.8067 -87.5764 133° Southeast 480 552 31,000  Level Memphis Center
12:31PM 36.6992 -87.4325 133° Southeast 480 552 31,000 60 Level Memphis Center
12:32PM 36.6067 -87.3067 132° Southeast 485 558 31,200 540 Climbing Memphis Center
12:33PM 36.5142 -87.1808 132° Southeast 485 558 32,200 900 Climbing Memphis Center
12:34PM 36.4219 -87.0583 133° Southeast 485 558 33,100 360 Climbing Memphis Center
12:35PM 36.3283 -86.9361 134° Southeast 481 554 33,000 -60 Descending Memphis Center
12:36PM 36.2242 -86.8019 134° Southeast 482 555 33,000  Level Memphis Center
12:37PM 36.1308 -86.6872 135° Southeast 477 549 33,000  Level Memphis Center
12:38PM 36.0111 -86.6211 156° South 471 542 33,000  Level Memphis Center
12:39PM 35.8908 -86.5614 158° South 464 534 33,000  Level Memphis Center
12:40PM 35.7694 -86.5017 158° South 464 534 33,000  Level Memphis Center
12:41PM 35.6489 -86.4411 158° South 464 534 33,000  Level Memphis Center
12:42PM 35.5289 -86.3808 158° South 463 533 33,000  Level Memphis Center
12:43PM 35.4089 -86.3233 159° South 462 532 33,000  Level Memphis Center
12:44PM 35.2681 -86.2581 159° South 461 531 33,000  Level Memphis Center
12:45PM 35.1456 -86.1961 158° South 461 531 33,000  Level Memphis Center
12:46PM 35.0272 -86.1378 158° South 461 531 33,000  Level Memphis Center
12:47PM 34.9089 -86.0819 159° South 461 531 33,000  Level Memphis Center
12:48PM 34.7906 -86.0231 158° South 461 531 33,000  Level Memphis Center
12:49PM 34.6711 -85.9611 157° South 463 533 33,000  Level Memphis Center
12:50PM 34.6003 -85.9061 147° Southeast 467 537 33,000  Level Atlanta Center
12:51PM 34.4869 -85.8206 148° Southeast 467 537 33,000  Level Atlanta Center
12:52PM 34.4000 -85.7608 150° Southeast 467 537 33,000  Level Atlanta Center
12:53PM 34.2761 -85.6678 148° Southeast 467 537 33,000  Level Atlanta Center
12:54PM 34.1664 -85.5853 148° Southeast 467 537 33,000  Level Atlanta Center
12:55PM 34.0547 -85.5081 150° Southeast 467 537 33,000  Level Atlanta Center
12:56PM 33.9428 -85.4361 152° Southeast 462 532 33,000  Level Atlanta Center
12:57PM 33.8247 -85.3667 154° Southeast 462 532 33,000  Level Atlanta Center
12:58PM 33.7086 -85.2975 154° Southeast 462 532 33,000  Level Atlanta Center
12:59PM 33.5922 -85.2308 154° Southeast 462 532 33,000  Level Atlanta Center
01:00PM 33.4697 -85.1819 162° South 462 532 33,000  Level Atlanta Center
01:01PM 33.3489 -85.1456 166° South 462 532 33,000  Level Atlanta Center
01:02PM 33.2261 -85.1142 168° South 457 526 33,000  Level Atlanta Center
01:03PM 33.1011 -85.0778 166° South 452 520 33,000  Level Atlanta Center
01:04PM 32.9783 -85.0417 166° South 452 520 33,000  Level Atlanta Center
01:05PM 32.8553 -85.0081 167° South 452 520 33,000  Level Atlanta Center
01:06PM 32.7219 -84.9647 165° South 452 520 33,000  Level Atlanta Center
01:07PM 32.6033 -84.9314 167° South 454 522 33,000  Level Atlanta Center
01:08PM 32.4783 -84.8958 167° South 454 522 33,000  Level Atlanta Center
01:09PM 32.3492 -84.8600 167° South 455 524 33,000  Level Atlanta Center
01:10PM 32.2283 -84.8319 169° South 461 531 33,000  Level Atlanta Center
01:11PM 32.1033 -84.7964 166° South 461 531 33,000  Level Atlanta Center
01:12PM 31.9908 -84.7636 166° South 461 531 33,000 -660 Level Atlanta Center
01:14PM 31.7111 -84.6875 167° South 488 562 31,000 -660 Descending Jacksonville Center
01:15PM 31.5886 -84.6558 168° South 470 541 31,000 -60 Level Jacksonville Center
01:16PM 31.4617 -84.6194 166° South 465 535 30,900 -840 Descending Jacksonville Center
01:17PM 31.3325 -84.5853 167° South 465 535 29,400 -1,440 Descending Jacksonville Center
01:18PM 31.2164 -84.5300 158° South 465 535 28,100 -1,260 Descending Jacksonville Center
01:19PM 31.1217 -84.4286 137° Southeast 450 518 26,900 -1,140 Descending Jacksonville Center
01:20PM 31.0308 -84.3328 138° Southeast 450 518 25,900 -1,020 Descending Jacksonville Center
01:21PM 30.9486 -84.2297 133° Southeast 444 511 24,900 -960 Descending Jacksonville Center
01:22PM 30.8744 -84.1172 128° Southeast 433 498 24,000 -480 Descending Jacksonville Center
01:23PM 30.8003 -84.0100 129° Southeast 433 498 24,000  Level Jacksonville Center
01:24PM 30.7239 -83.9028 130° Southeast 428 493 24,000  Level Jacksonville Center
01:25PM 30.6494 -83.7981 130° Southeast 428 493 24,000  Level Jacksonville Center
01:26PM 30.5731 -83.6911 130° Southeast 428 493 24,000  Level Jacksonville Center
01:27PM 30.5047 -83.5989 131° Southeast 423 487 24,000  Level Jacksonville Center
01:28PM 30.4194 -83.5019 136° Southeast 423 487 24,000  Level Jacksonville Center
01:29PM 30.3261 -83.4172 142° Southeast 423 487 24,000  Level Jacksonville Center
01:30PM 30.2219 -83.3542 152° Southeast 428 493 24,000  Level Jacksonville Center
01:31PM 30.1114 -83.3081 160° South 414 476 24,000  Level Jacksonville Center
01:32PM 29.9986 -83.2908 172° South 414 476 24,000 -240 Level Jacksonville Center
01:33PM 29.8797 -83.3094 188° South 414 476 23,600 -660 Descending Jacksonville Center
01:34PM 29.7647 -83.2897 172° South 414 476 22,700 -1,020 Descending Jacksonville Center
01:35PM 29.6500 -83.2653 170° South 420 483 21,600 -1,620 Descending Jacksonville Center
01:36PM 29.5353 -83.2364 168° South 425 489 19,500 -1,380 Descending Jacksonville Center
01:37PM 29.4206 -83.2119 169° South 425 489 18,900 -300 Descending Jacksonville Center
01:38PM 29.3122 -83.1903 170° South 419 482 19,000 -840 Climbing Jacksonville Center
01:39PM 29.2078 -83.1614 166° South 403 464 17,300 -2,100 Descending Jacksonville Center
01:40PM 29.1078 -83.0922 149° Southeast 375 432 14,900 -1,980 Descending Jacksonville Center
01:41PM 29.0181 -83.0328 150° Southeast 375 432 13,400 -1,200 Descending Jacksonville Center
01:42PM 28.9306 -82.9781 151° Southeast 370 426 12,600 -780 Descending Jacksonville Center
01:43PM 28.8386 -82.9306 156° South 364 419 11,900 -660 Descending Jacksonville Center
01:44PM 28.7000 -82.8833 163° South 352 405 11,000 -360 Descending Tampa TRACON
01:45PM 28.6639 -82.9411 235° Southwest 314 361 11,000  Level Miami Center
01:46PM 28.5897 -83.0031 216° Southwest 334 384 11,000 -60 Level Miami Center
01:47PM 28.4833 -83.0167 186° South 347 399 10,900 -540 Descending Tampa TRACON
01:48PM 28.3833 -83.0000 172° South 303 349 9,900 -1,260 Descending Tampa TRACON
01:49PM 28.3092 -82.9903 173° South 300 345 8,400 -1,560 Descending Miami Center
01:50PM 28.2450 -82.9378 144° Southeast 291 335 6,800 -1,140 Descending Miami Center
01:52PM 28.1833 -82.8667 135° Southeast 287 330 6,000 -720 Descending Tampa TRACON
01:52PM 28.1333 -82.8167 139° Southeast 281 323 5,400 -1,140 Descending Tampa TRACON
01:54PM 28.0833 -82.7333 124° Southeast 250 288 3,800 -1,500 Descending Tampa TRACON
01:54PM 28.0333 -82.7000 150° Southeast 230 265 2,400 -1,260 Descending Tampa TRACON
01:56PM 27.9833 -82.6667 150° Southeast 156 180 1,300 -900 Descending Tampa TRACON
01:57PM 27.9500 -82.6833 204° Southwest 126 145 600 -720 Descending Tampa TRACON